Terminal Aerodrome Forecast
Issued by NWS Goodland, KS

Home | Current Version | Previous Version | Text Only | Print | Product List | Glossary On
Versions: 1 2 3 4 5 6 7 8 9 10 11 12 13 14 15 16 17 18
936
FTUS43 KGLD 221132 AAA
TAFGLD
TAF AMD
KGLD 221132Z 2212/2312 33035G49KT 1SM BLSN VCSH OVC025
      TEMPO 2212/2215 33027G36KT 1/4SM BLSN OVC010
     FM221500 32023G32KT 3SM BLSN SCT150
      TEMPO 2215/2218 BKN020
     FM222300 31013KT P6SM FEW250=

USA.gov is the U.S. government's official web portal to all federal, state and local government web resources and services.